sensor_id;sensor_type;location;lat;lon;timestamp;P1;durP1;ratioP1;P2;durP2;ratioP2
5333;SDS011;2689;50.954;7.116;2023-12-20T00:01:45;14.77;;;12.60;;
5333;SDS011;2689;50.954;7.116;2023-12-20T00:04:11;14.47;;;12.83;;
5333;SDS011;2689;50.954;7.116;2023-12-20T00:06:38;13.10;;;11.63;;
5333;SDS011;2689;50.954;7.116;2023-12-20T00:09:05;16.73;;;11.73;;
5333;SDS011;2689;50.954;7.116;2023-12-20T00:11:31;13.30;;;11.10;;
5333;SDS011;2689;50.954;7.116;2023-12-20T00:13:58;13.23;;;11.80;;
5333;SDS011;2689;50.954;7.116;2023-12-20T00:16:25;15.17;;;12.50;;
5333;SDS011;2689;50.954;7.116;2023-12-20T00:18:53;15.63;;;12.30;;
5333;SDS011;2689;50.954;7.116;2023-12-20T00:21:22;16.27;;;13.47;;
5333;SDS011;2689;50.954;7.116;2023-12-20T00:23:49;16.40;;;12.97;;
5333;SDS011;2689;50.954;7.116;2023-12-20T00:26:15;15.87;;;12.63;;
5333;SDS011;2689;50.954;7.116;2023-12-20T00:28:42;16.23;;;14.47;;
5333;SDS011;2689;50.954;7.116;2023-12-20T00:31:09;18.47;;;13.60;;
5333;SDS011;2689;50.954;7.116;2023-12-20T00:33:35;15.93;;;12.83;;
5333;SDS011;2689;50.954;7.116;2023-12-20T00:36:04;17.40;;;12.10;;
5333;SDS011;2689;50.954;7.116;2023-12-20T00:38:33;17.07;;;13.60;;
5333;SDS011;2689;50.954;7.116;2023-12-20T00:41:00;12.40;;;10.00;;
5333;SDS011;2689;50.954;7.116;2023-12-20T00:43:27;10.27;;;8.07;;
5333;SDS011;2689;50.954;7.116;2023-12-20T00:45:54;8.77;;;6.97;;
5333;SDS011;2689;50.954;7.116;2023-12-20T00:48:21;11.50;;;9.30;;
5333;SDS011;2689;50.954;7.116;2023-12-20T00:50:48;12.03;;;9.47;;
5333;SDS011;2689;50.954;7.116;2023-12-20T00:53:16;10.40;;;7.83;;
5333;SDS011;2689;50.954;7.116;2023-12-20T00:55:47;13.30;;;9.20;;
5333;SDS011;2689;50.954;7.116;2023-12-20T00:58:15;11.23;;;9.00;;
5333;SDS011;2689;50.954;7.116;2023-12-20T01:00:45;9.90;;;8.40;;
5333;SDS011;2689;50.954;7.116;2023-12-20T01:03:11;12.13;;;8.90;;
5333;SDS011;2689;50.954;7.116;2023-12-20T01:05:39;12.13;;;9.97;;
5333;SDS011;2689;50.954;7.116;2023-12-20T01:08:06;13.10;;;10.33;;
5333;SDS011;2689;50.954;7.116;2023-12-20T01:10:34;14.07;;;10.07;;
5333;SDS011;2689;50.954;7.116;2023-12-20T01:13:01;15.40;;;10.37;;
5333;SDS011;2689;50.954;7.116;2023-12-20T01:15:27;11.63;;;9.83;;
5333;SDS011;2689;50.954;7.116;2023-12-20T01:17:54;14.50;;;11.30;;
5333;SDS011;2689;50.954;7.116;2023-12-20T01:20:21;11.97;;;9.77;;
5333;SDS011;2689;50.954;7.116;2023-12-20T01:22:48;12.17;;;9.40;;
5333;SDS011;2689;50.954;7.116;2023-12-20T01:25:17;15.13;;;10.13;;
5333;SDS011;2689;50.954;7.116;2023-12-20T01:27:45;12.03;;;9.57;;
5333;SDS011;2689;50.954;7.116;2023-12-20T01:30:12;13.20;;;9.63;;
5333;SDS011;2689;50.954;7.116;2023-12-20T01:32:40;14.60;;;9.77;;
5333;SDS011;2689;50.954;7.116;2023-12-20T01:35:07;11.97;;;9.63;;
5333;SDS011;2689;50.954;7.116;2023-12-20T01:37:34;15.30;;;9.67;;
5333;SDS011;2689;50.954;7.116;2023-12-20T01:40:00;12.67;;;8.30;;
5333;SDS011;2689;50.954;7.116;2023-12-20T01:42:27;14.37;;;7.80;;
5333;SDS011;2689;50.954;7.116;2023-12-20T01:44:55;10.93;;;7.20;;
5333;SDS011;2689;50.954;7.116;2023-12-20T01:47:22;15.53;;;7.90;;
5333;SDS011;2689;50.954;7.116;2023-12-20T01:49:49;13.60;;;7.50;;
5333;SDS011;2689;50.954;7.116;2023-12-20T01:52:16;12.50;;;7.80;;
5333;SDS011;2689;50.954;7.116;2023-12-20T01:54:43;11.90;;;7.80;;
5333;SDS011;2689;50.954;7.116;2023-12-20T01:57:10;18.13;;;8.77;;
5333;SDS011;2689;50.954;7.116;2023-12-20T01:59:38;14.20;;;9.67;;
5333;SDS011;2689;50.954;7.116;2023-12-20T02:02:07;12.80;;;8.70;;
5333;SDS011;2689;50.954;7.116;2023-12-20T02:04:37;11.30;;;7.60;;
5333;SDS011;2689;50.954;7.116;2023-12-20T02:07:03;16.13;;;10.00;;
5333;SDS011;2689;50.954;7.116;2023-12-20T02:09:31;14.67;;;9.23;;
5333;SDS011;2689;50.954;7.116;2023-12-20T02:11:58;19.37;;;11.60;;
5333;SDS011;2689;50.954;7.116;2023-12-20T02:14:25;14.53;;;10.10;;
5333;SDS011;2689;50.954;7.116;2023-12-20T02:16:54;16.67;;;11.27;;
5333;SDS011;2689;50.954;7.116;2023-12-20T02:19:22;23.87;;;10.80;;
5333;SDS011;2689;50.954;7.116;2023-12-20T02:21:50;22.77;;;12.43;;
5333;SDS011;2689;50.954;7.116;2023-12-20T02:24:33;18.63;;;11.60;;
5333;SDS011;2689;50.954;7.116;2023-12-20T02:26:59;19.80;;;11.87;;
5333;SDS011;2689;50.954;7.116;2023-12-20T02:29:26;17.40;;;9.83;;
5333;SDS011;2689;50.954;7.116;2023-12-20T02:31:53;21.17;;;12.23;;
5333;SDS011;2689;50.954;7.116;2023-12-20T02:34:20;12.20;;;8.77;;
5333;SDS011;2689;50.954;7.116;2023-12-20T02:36:46;23.53;;;13.87;;
5333;SDS011;2689;50.954;7.116;2023-12-20T02:39:15;21.17;;;11.80;;
5333;SDS011;2689;50.954;7.116;2023-12-20T02:41:42;26.93;;;13.23;;
5333;SDS011;2689;50.954;7.116;2023-12-20T02:44:09;25.93;;;10.50;;
5333;SDS011;2689;50.954;7.116;2023-12-20T02:46:36;25.27;;;11.60;;
5333;SDS011;2689;50.954;7.116;2023-12-20T02:49:02;20.40;;;10.50;;
5333;SDS011;2689;50.954;7.116;2023-12-20T02:51:29;21.23;;;10.20;;
5333;SDS011;2689;50.954;7.116;2023-12-20T02:53:56;25.87;;;9.30;;
5333;SDS011;2689;50.954;7.116;2023-12-20T02:56:24;22.87;;;11.23;;
5333;SDS011;2689;50.954;7.116;2023-12-20T02:58:50;17.13;;;8.20;;
5333;SDS011;2689;50.954;7.116;2023-12-20T03:01:17;19.17;;;7.70;;
5333;SDS011;2689;50.954;7.116;2023-12-20T03:03:44;21.43;;;7.83;;
5333;SDS011;2689;50.954;7.116;2023-12-20T03:06:11;19.17;;;8.10;;
5333;SDS011;2689;50.954;7.116;2023-12-20T03:08:45;15.90;;;7.53;;
5333;SDS011;2689;50.954;7.116;2023-12-20T03:11:12;18.40;;;6.87;;
5333;SDS011;2689;50.954;7.116;2023-12-20T03:13:40;14.63;;;6.40;;
5333;SDS011;2689;50.954;7.116;2023-12-20T03:16:10;15.93;;;5.93;;
5333;SDS011;2689;50.954;7.116;2023-12-20T03:18:37;13.53;;;5.90;;
5333;SDS011;2689;50.954;7.116;2023-12-20T03:21:04;18.33;;;6.27;;
5333;SDS011;2689;50.954;7.116;2023-12-20T03:23:31;13.10;;;4.90;;
5333;SDS011;2689;50.954;7.116;2023-12-20T03:25:58;17.43;;;5.40;;
5333;SDS011;2689;50.954;7.116;2023-12-20T03:28:25;28.70;;;5.33;;
5333;SDS011;2689;50.954;7.116;2023-12-20T03:30:54;15.67;;;5.40;;
5333;SDS011;2689;50.954;7.116;2023-12-20T03:33:20;10.43;;;3.03;;
5333;SDS011;2689;50.954;7.116;2023-12-20T03:35:47;12.97;;;4.07;;
5333;SDS011;2689;50.954;7.116;2023-12-20T03:38:14;17.57;;;5.17;;
5333;SDS011;2689;50.954;7.116;2023-12-20T03:40:41;7.33;;;2.67;;
5333;SDS011;2689;50.954;7.116;2023-12-20T03:43:07;14.20;;;4.57;;
5333;SDS011;2689;50.954;7.116;2023-12-20T03:45:34;17.33;;;4.03;;
5333;SDS011;2689;50.954;7.116;2023-12-20T03:48:02;18.50;;;4.13;;
5333;SDS011;2689;50.954;7.116;2023-12-20T03:50:30;10.60;;;3.10;;
5333;SDS011;2689;50.954;7.116;2023-12-20T03:52:56;15.20;;;4.03;;
5333;SDS011;2689;50.954;7.116;2023-12-20T03:55:23;11.47;;;3.93;;
5333;SDS011;2689;50.954;7.116;2023-12-20T03:57:51;13.30;;;3.77;;
5333;SDS011;2689;50.954;7.116;2023-12-20T04:00:18;25.80;;;5.00;;
5333;SDS011;2689;50.954;7.116;2023-12-20T04:02:46;25.37;;;4.50;;
5333;SDS011;2689;50.954;7.116;2023-12-20T04:05:14;15.90;;;3.50;;
5333;SDS011;2689;50.954;7.116;2023-12-20T04:07:43;15.00;;;4.57;;
5333;SDS011;2689;50.954;7.116;2023-12-20T04:10:10;15.20;;;4.43;;
5333;SDS011;2689;50.954;7.116;2023-12-20T04:12:37;17.17;;;4.90;;
5333;SDS011;2689;50.954;7.116;2023-12-20T04:15:04;29.07;;;5.37;;
5333;SDS011;2689;50.954;7.116;2023-12-20T04:17:34;11.77;;;5.50;;
5333;SDS011;2689;50.954;7.116;2023-12-20T04:20:13;17.63;;;4.70;;
5333;SDS011;2689;50.954;7.116;2023-12-20T04:22:41;13.97;;;4.30;;
5333;SDS011;2689;50.954;7.116;2023-12-20T04:25:08;15.70;;;5.20;;
5333;SDS011;2689;50.954;7.116;2023-12-20T04:27:35;7.17;;;3.80;;
5333;SDS011;2689;50.954;7.116;2023-12-20T04:30:02;17.30;;;4.70;;
5333;SDS011;2689;50.954;7.116;2023-12-20T04:32:29;9.57;;;3.20;;
5333;SDS011;2689;50.954;7.116;2023-12-20T04:34:56;33.53;;;5.60;;
5333;SDS011;2689;50.954;7.116;2023-12-20T04:37:25;16.70;;;4.07;;
5333;SDS011;2689;50.954;7.116;2023-12-20T04:39:51;15.97;;;5.30;;
5333;SDS011;2689;50.954;7.116;2023-12-20T04:42:21;16.70;;;5.57;;
5333;SDS011;2689;50.954;7.116;2023-12-20T04:44:48;17.97;;;5.30;;
5333;SDS011;2689;50.954;7.116;2023-12-20T04:47:14;16.73;;;3.93;;
5333;SDS011;2689;50.954;7.116;2023-12-20T04:49:41;13.03;;;5.00;;
5333;SDS011;2689;50.954;7.116;2023-12-20T04:52:08;12.33;;;3.00;;
5333;SDS011;2689;50.954;7.116;2023-12-20T04:54:36;19.23;;;4.77;;
5333;SDS011;2689;50.954;7.116;2023-12-20T04:57:03;14.10;;;4.00;;
5333;SDS011;2689;50.954;7.116;2023-12-20T04:59:30;15.37;;;5.60;;
5333;SDS011;2689;50.954;7.116;2023-12-20T05:01:56;15.37;;;4.57;;
5333;SDS011;2689;50.954;7.116;2023-12-20T05:04:23;16.33;;;4.47;;
5333;SDS011;2689;50.954;7.116;2023-12-20T05:06:50;20.87;;;5.77;;
5333;SDS011;2689;50.954;7.116;2023-12-20T05:09:17;20.80;;;4.63;;
5333;SDS011;2689;50.954;7.116;2023-12-20T05:11:45;20.87;;;5.90;;
5333;SDS011;2689;50.954;7.116;2023-12-20T05:14:11;20.17;;;5.13;;
5333;SDS011;2689;50.954;7.116;2023-12-20T05:16:38;23.10;;;5.83;;
5333;SDS011;2689;50.954;7.116;2023-12-20T05:19:05;20.93;;;5.10;;
5333;SDS011;2689;50.954;7.116;2023-12-20T05:21:32;24.50;;;5.77;;
5333;SDS011;2689;50.954;7.116;2023-12-20T05:23:59;13.70;;;5.10;;
5333;SDS011;2689;50.954;7.116;2023-12-20T05:26:26;9.37;;;4.23;;
5333;SDS011;2689;50.954;7.116;2023-12-20T05:28:56;20.60;;;5.80;;
5333;SDS011;2689;50.954;7.116;2023-12-20T05:31:22;22.50;;;5.57;;
5333;SDS011;2689;50.954;7.116;2023-12-20T05:33:48;12.23;;;4.80;;
5333;SDS011;2689;50.954;7.116;2023-12-20T05:36:15;12.13;;;5.00;;
5333;SDS011;2689;50.954;7.116;2023-12-20T05:38:41;16.73;;;5.50;;
5333;SDS011;2689;50.954;7.116;2023-12-20T05:41:08;25.07;;;7.57;;
5333;SDS011;2689;50.954;7.116;2023-12-20T05:43:35;14.93;;;4.77;;
5333;SDS011;2689;50.954;7.116;2023-12-20T05:46:03;18.97;;;5.47;;
5333;SDS011;2689;50.954;7.116;2023-12-20T05:48:30;17.83;;;4.37;;
5333;SDS011;2689;50.954;7.116;2023-12-20T05:50:57;17.13;;;6.30;;
5333;SDS011;2689;50.954;7.116;2023-12-20T05:53:24;18.47;;;5.30;;
5333;SDS011;2689;50.954;7.116;2023-12-20T05:55:50;13.40;;;4.10;;
5333;SDS011;2689;50.954;7.116;2023-12-20T05:58:17;19.43;;;4.80;;
5333;SDS011;2689;50.954;7.116;2023-12-20T06:00:44;12.13;;;4.37;;
5333;SDS011;2689;50.954;7.116;2023-12-20T06:03:12;22.23;;;5.20;;
5333;SDS011;2689;50.954;7.116;2023-12-20T06:05:39;12.43;;;4.57;;
5333;SDS011;2689;50.954;7.116;2023-12-20T06:08:06;11.60;;;4.33;;
5333;SDS011;2689;50.954;7.116;2023-12-20T06:10:34;13.67;;;5.50;;
5333;SDS011;2689;50.954;7.116;2023-12-20T06:13:00;11.13;;;5.20;;
5333;SDS011;2689;50.954;7.116;2023-12-20T06:15:29;13.60;;;5.10;;
5333;SDS011;2689;50.954;7.116;2023-12-20T06:17:56;17.13;;;6.17;;
5333;SDS011;2689;50.954;7.116;2023-12-20T06:20:27;25.93;;;5.13;;
5333;SDS011;2689;50.954;7.116;2023-12-20T06:22:54;13.43;;;3.73;;
5333;SDS011;2689;50.954;7.116;2023-12-20T06:25:21;14.27;;;4.67;;
5333;SDS011;2689;50.954;7.116;2023-12-20T06:27:48;15.90;;;6.30;;
5333;SDS011;2689;50.954;7.116;2023-12-20T06:30:15;20.37;;;5.70;;
5333;SDS011;2689;50.954;7.116;2023-12-20T06:32:42;18.87;;;5.00;;
5333;SDS011;2689;50.954;7.116;2023-12-20T06:35:09;4.33;;;3.23;;
5333;SDS011;2689;50.954;7.116;2023-12-20T06:37:37;18.90;;;5.33;;
5333;SDS011;2689;50.954;7.116;2023-12-20T06:40:07;13.10;;;5.27;;
5333;SDS011;2689;50.954;7.116;2023-12-20T06:42:36;21.00;;;6.00;;
5333;SDS011;2689;50.954;7.116;2023-12-20T06:45:04;15.90;;;5.90;;
5333;SDS011;2689;50.954;7.116;2023-12-20T06:47:31;23.70;;;6.63;;
5333;SDS011;2689;50.954;7.116;2023-12-20T06:49:58;21.50;;;5.20;;
5333;SDS011;2689;50.954;7.116;2023-12-20T06:52:25;20.67;;;6.00;;
5333;SDS011;2689;50.954;7.116;2023-12-20T06:54:53;11.83;;;4.40;;
5333;SDS011;2689;50.954;7.116;2023-12-20T06:57:20;24.17;;;5.77;;
5333;SDS011;2689;50.954;7.116;2023-12-20T06:59:47;13.57;;;5.67;;
5333;SDS011;2689;50.954;7.116;2023-12-20T07:02:14;19.10;;;5.10;;
5333;SDS011;2689;50.954;7.116;2023-12-20T07:04:53;31.10;;;5.80;;
5333;SDS011;2689;50.954;7.116;2023-12-20T07:07:19;15.33;;;6.10;;
5333;SDS011;2689;50.954;7.116;2023-12-20T07:09:48;22.87;;;5.77;;
5333;SDS011;2689;50.954;7.116;2023-12-20T07:12:17;21.03;;;5.37;;
5333;SDS011;2689;50.954;7.116;2023-12-20T07:14:45;15.70;;;5.90;;
5333;SDS011;2689;50.954;7.116;2023-12-20T07:17:12;22.13;;;5.47;;
5333;SDS011;2689;50.954;7.116;2023-12-20T07:19:40;24.90;;;5.43;;
5333;SDS011;2689;50.954;7.116;2023-12-20T07:22:07;28.27;;;4.90;;
5333;SDS011;2689;50.954;7.116;2023-12-20T07:24:34;22.77;;;6.87;;
5333;SDS011;2689;50.954;7.116;2023-12-20T07:27:01;12.90;;;5.53;;
5333;SDS011;2689;50.954;7.116;2023-12-20T07:29:30;26.93;;;5.27;;
5333;SDS011;2689;50.954;7.116;2023-12-20T07:31:56;16.60;;;5.07;;
5333;SDS011;2689;50.954;7.116;2023-12-20T07:34:23;14.67;;;4.53;;
5333;SDS011;2689;50.954;7.116;2023-12-20T07:36:50;16.33;;;5.70;;
5333;SDS011;2689;50.954;7.116;2023-12-20T07:39:17;9.83;;;4.90;;
5333;SDS011;2689;50.954;7.116;2023-12-20T07:41:43;20.90;;;5.40;;
5333;SDS011;2689;50.954;7.116;2023-12-20T07:44:10;19.83;;;5.50;;
5333;SDS011;2689;50.954;7.116;2023-12-20T07:46:39;9.27;;;3.10;;
5333;SDS011;2689;50.954;7.116;2023-12-20T07:49:06;15.60;;;6.13;;
5333;SDS011;2689;50.954;7.116;2023-12-20T07:51:33;13.90;;;5.47;;
5333;SDS011;2689;50.954;7.116;2023-12-20T07:54:00;17.57;;;5.30;;
5333;SDS011;2689;50.954;7.116;2023-12-20T07:56:28;17.70;;;5.00;;
5333;SDS011;2689;50.954;7.116;2023-12-20T07:58:55;13.60;;;4.63;;
5333;SDS011;2689;50.954;7.116;2023-12-20T08:01:22;13.70;;;4.77;;
5333;SDS011;2689;50.954;7.116;2023-12-20T08:03:50;14.13;;;4.47;;
5333;SDS011;2689;50.954;7.116;2023-12-20T08:06:17;17.03;;;6.30;;
5333;SDS011;2689;50.954;7.116;2023-12-20T08:08:44;20.27;;;6.53;;
5333;SDS011;2689;50.954;7.116;2023-12-20T08:11:10;20.07;;;6.40;;
5333;SDS011;2689;50.954;7.116;2023-12-20T08:13:38;19.87;;;5.70;;
5333;SDS011;2689;50.954;7.116;2023-12-20T08:16:12;23.10;;;7.33;;
5333;SDS011;2689;50.954;7.116;2023-12-20T08:18:40;11.37;;;4.90;;
5333;SDS011;2689;50.954;7.116;2023-12-20T08:21:08;20.93;;;6.10;;
5333;SDS011;2689;50.954;7.116;2023-12-20T08:23:36;18.23;;;5.80;;
5333;SDS011;2689;50.954;7.116;2023-12-20T08:26:04;16.47;;;5.20;;
5333;SDS011;2689;50.954;7.116;2023-12-20T08:28:31;18.20;;;7.77;;
5333;SDS011;2689;50.954;7.116;2023-12-20T08:31:04;18.20;;;5.80;;
5333;SDS011;2689;50.954;7.116;2023-12-20T08:33:40;11.67;;;4.97;;
5333;SDS011;2689;50.954;7.116;2023-12-20T08:36:07;23.50;;;6.00;;
5333;SDS011;2689;50.954;7.116;2023-12-20T08:38:35;14.13;;;5.67;;
5333;SDS011;2689;50.954;7.116;2023-12-20T08:41:02;15.07;;;5.60;;
5333;SDS011;2689;50.954;7.116;2023-12-20T08:43:31;14.07;;;4.13;;
5333;SDS011;2689;50.954;7.116;2023-12-20T08:46:00;20.80;;;6.20;;
5333;SDS011;2689;50.954;7.116;2023-12-20T08:48:26;13.23;;;4.00;;
5333;SDS011;2689;50.954;7.116;2023-12-20T08:50:54;14.33;;;4.37;;
5333;SDS011;2689;50.954;7.116;2023-12-20T08:53:28;24.00;;;5.40;;
5333;SDS011;2689;50.954;7.116;2023-12-20T08:55:54;12.67;;;4.50;;
5333;SDS011;2689;50.954;7.116;2023-12-20T08:58:26;17.33;;;4.40;;
5333;SDS011;2689;50.954;7.116;2023-12-20T09:00:52;15.17;;;4.60;;
5333;SDS011;2689;50.954;7.116;2023-12-20T09:03:19;12.80;;;4.67;;
5333;SDS011;2689;50.954;7.116;2023-12-20T09:05:46;16.83;;;4.67;;
5333;SDS011;2689;50.954;7.116;2023-12-20T09:08:13;11.53;;;3.73;;
5333;SDS011;2689;50.954;7.116;2023-12-20T09:10:41;17.63;;;4.40;;
5333;SDS011;2689;50.954;7.116;2023-12-20T09:13:09;11.27;;;3.73;;
5333;SDS011;2689;50.954;7.116;2023-12-20T09:15:37;13.60;;;4.50;;
5333;SDS011;2689;50.954;7.116;2023-12-20T09:18:04;13.30;;;4.57;;
5333;SDS011;2689;50.954;7.116;2023-12-20T09:20:32;14.20;;;4.20;;
5333;SDS011;2689;50.954;7.116;2023-12-20T09:22:59;15.73;;;4.20;;
5333;SDS011;2689;50.954;7.116;2023-12-20T09:25:26;16.23;;;4.97;;
5333;SDS011;2689;50.954;7.116;2023-12-20T09:27:54;11.37;;;4.00;;
5333;SDS011;2689;50.954;7.116;2023-12-20T09:30:21;5.00;;;3.27;;
5333;SDS011;2689;50.954;7.116;2023-12-20T09:32:48;23.03;;;7.30;;
5333;SDS011;2689;50.954;7.116;2023-12-20T09:35:16;12.30;;;5.07;;
5333;SDS011;2689;50.954;7.116;2023-12-20T09:37:44;10.53;;;3.57;;
5333;SDS011;2689;50.954;7.116;2023-12-20T09:40:12;13.77;;;3.77;;
5333;SDS011;2689;50.954;7.116;2023-12-20T09:42:41;13.27;;;3.90;;
5333;SDS011;2689;50.954;7.116;2023-12-20T09:45:16;11.47;;;4.00;;
5333;SDS011;2689;50.954;7.116;2023-12-20T09:47:46;21.00;;;5.20;;
5333;SDS011;2689;50.954;7.116;2023-12-20T09:50:14;19.07;;;5.20;;
5333;SDS011;2689;50.954;7.116;2023-12-20T09:52:43;10.40;;;4.10;;
5333;SDS011;2689;50.954;7.116;2023-12-20T09:55:12;10.70;;;3.63;;
5333;SDS011;2689;50.954;7.116;2023-12-20T09:57:39;12.57;;;3.13;;
5333;SDS011;2689;50.954;7.116;2023-12-20T10:00:07;13.57;;;3.70;;
5333;SDS011;2689;50.954;7.116;2023-12-20T10:02:35;14.80;;;4.03;;
5333;SDS011;2689;50.954;7.116;2023-12-20T10:05:06;20.70;;;5.07;;
5333;SDS011;2689;50.954;7.116;2023-12-20T10:07:34;13.37;;;3.93;;
5333;SDS011;2689;50.954;7.116;2023-12-20T10:10:01;13.23;;;6.40;;
5333;SDS011;2689;50.954;7.116;2023-12-20T10:12:28;14.73;;;3.50;;
5333;SDS011;2689;50.954;7.116;2023-12-20T10:14:55;12.40;;;3.57;;
5333;SDS011;2689;50.954;7.116;2023-12-20T10:17:23;15.07;;;3.70;;
5333;SDS011;2689;50.954;7.116;2023-12-20T10:19:55;13.27;;;4.13;;
5333;SDS011;2689;50.954;7.116;2023-12-20T10:22:22;23.10;;;3.60;;
5333;SDS011;2689;50.954;7.116;2023-12-20T10:24:48;23.60;;;3.60;;
5333;SDS011;2689;50.954;7.116;2023-12-20T10:27:15;19.87;;;3.87;;
5333;SDS011;2689;50.954;7.116;2023-12-20T10:29:45;9.60;;;3.30;;
5333;SDS011;2689;50.954;7.116;2023-12-20T10:32:21;14.47;;;4.00;;
5333;SDS011;2689;50.954;7.116;2023-12-20T10:34:49;16.93;;;4.70;;
5333;SDS011;2689;50.954;7.116;2023-12-20T10:37:17;10.60;;;3.40;;
5333;SDS011;2689;50.954;7.116;2023-12-20T10:39:45;9.33;;;2.90;;
5333;SDS011;2689;50.954;7.116;2023-12-20T10:42:18;11.90;;;3.30;;
5333;SDS011;2689;50.954;7.116;2023-12-20T10:44:47;19.83;;;4.10;;
5333;SDS011;2689;50.954;7.116;2023-12-20T10:47:14;10.00;;;3.37;;
5333;SDS011;2689;50.954;7.116;2023-12-20T10:49:42;24.17;;;3.77;;
5333;SDS011;2689;50.954;7.116;2023-12-20T10:52:11;12.93;;;4.23;;
5333;SDS011;2689;50.954;7.116;2023-12-20T10:54:39;13.10;;;3.50;;
5333;SDS011;2689;50.954;7.116;2023-12-20T10:57:07;9.10;;;3.20;;
5333;SDS011;2689;50.954;7.116;2023-12-20T10:59:35;11.30;;;3.40;;
5333;SDS011;2689;50.954;7.116;2023-12-20T11:02:03;17.33;;;3.57;;
5333;SDS011;2689;50.954;7.116;2023-12-20T11:04:33;8.77;;;2.90;;
5333;SDS011;2689;50.954;7.116;2023-12-20T11:07:07;11.70;;;3.60;;
5333;SDS011;2689;50.954;7.116;2023-12-20T11:09:45;5.57;;;2.57;;
5333;SDS011;2689;50.954;7.116;2023-12-20T11:12:18;13.40;;;3.40;;
5333;SDS011;2689;50.954;7.116;2023-12-20T11:14:51;17.30;;;3.70;;
5333;SDS011;2689;50.954;7.116;2023-12-20T11:17:21;11.30;;;3.57;;
5333;SDS011;2689;50.954;7.116;2023-12-20T11:20:05;17.37;;;4.37;;
5333;SDS011;2689;50.954;7.116;2023-12-20T11:22:37;17.70;;;3.23;;
5333;SDS011;2689;50.954;7.116;2023-12-20T11:25:08;12.53;;;3.43;;
5333;SDS011;2689;50.954;7.116;2023-12-20T11:27:36;8.97;;;3.70;;
5333;SDS011;2689;50.954;7.116;2023-12-20T11:30:06;11.90;;;3.00;;
5333;SDS011;2689;50.954;7.116;2023-12-20T11:32:36;8.80;;;3.93;;
5333;SDS011;2689;50.954;7.116;2023-12-20T11:35:16;35.67;;;3.90;;
5333;SDS011;2689;50.954;7.116;2023-12-20T11:37:44;16.23;;;3.70;;
5333;SDS011;2689;50.954;7.116;2023-12-20T11:40:14;9.20;;;2.87;;
5333;SDS011;2689;50.954;7.116;2023-12-20T11:42:43;16.53;;;4.07;;
5333;SDS011;2689;50.954;7.116;2023-12-20T11:45:13;12.23;;;3.80;;
5333;SDS011;2689;50.954;7.116;2023-12-20T11:47:42;8.03;;;3.03;;
5333;SDS011;2689;50.954;7.116;2023-12-20T11:50:10;6.33;;;2.43;;
5333;SDS011;2689;50.954;7.116;2023-12-20T11:52:39;13.90;;;4.33;;
5333;SDS011;2689;50.954;7.116;2023-12-20T11:55:06;6.87;;;2.43;;
5333;SDS011;2689;50.954;7.116;2023-12-20T11:57:34;13.03;;;2.80;;
5333;SDS011;2689;50.954;7.116;2023-12-20T12:00:02;5.17;;;2.47;;
5333;SDS011;2689;50.954;7.116;2023-12-20T12:02:29;11.60;;;4.40;;
5333;SDS011;2689;50.954;7.116;2023-12-20T12:04:56;14.90;;;4.90;;
5333;SDS011;2689;50.954;7.116;2023-12-20T12:07:24;14.13;;;3.07;;
5333;SDS011;2689;50.954;7.116;2023-12-20T12:09:51;15.73;;;3.30;;
5333;SDS011;2689;50.954;7.116;2023-12-20T12:12:18;15.77;;;5.27;;
5333;SDS011;2689;50.954;7.116;2023-12-20T12:14:47;8.63;;;3.50;;
5333;SDS011;2689;50.954;7.116;2023-12-20T12:17:15;5.90;;;2.57;;
5333;SDS011;2689;50.954;7.116;2023-12-20T12:19:42;12.17;;;3.53;;
5333;SDS011;2689;50.954;7.116;2023-12-20T12:22:10;9.87;;;3.03;;
5333;SDS011;2689;50.954;7.116;2023-12-20T12:24:39;6.90;;;2.50;;
5333;SDS011;2689;50.954;7.116;2023-12-20T12:27:08;11.60;;;3.73;;
5333;SDS011;2689;50.954;7.116;2023-12-20T12:29:35;8.67;;;3.10;;
5333;SDS011;2689;50.954;7.116;2023-12-20T12:32:05;12.43;;;3.50;;
5333;SDS011;2689;50.954;7.116;2023-12-20T12:34:33;7.50;;;2.33;;
5333;SDS011;2689;50.954;7.116;2023-12-20T12:37:00;10.33;;;3.40;;
5333;SDS011;2689;50.954;7.116;2023-12-20T12:39:27;16.27;;;4.70;;
5333;SDS011;2689;50.954;7.116;2023-12-20T12:41:55;7.87;;;2.70;;
5333;SDS011;2689;50.954;7.116;2023-12-20T12:44:23;6.93;;;4.10;;
5333;SDS011;2689;50.954;7.116;2023-12-20T12:46:52;18.93;;;4.73;;
5333;SDS011;2689;50.954;7.116;2023-12-20T12:49:20;12.57;;;3.37;;
5333;SDS011;2689;50.954;7.116;2023-12-20T12:51:47;19.73;;;4.27;;
5333;SDS011;2689;50.954;7.116;2023-12-20T12:54:14;16.13;;;3.33;;
5333;SDS011;2689;50.954;7.116;2023-12-20T12:56:42;10.00;;;3.70;;
5333;SDS011;2689;50.954;7.116;2023-12-20T12:59:13;15.03;;;4.67;;
5333;SDS011;2689;50.954;7.116;2023-12-20T13:01:40;7.50;;;3.43;;
5333;SDS011;2689;50.954;7.116;2023-12-20T13:04:06;15.27;;;3.67;;
5333;SDS011;2689;50.954;7.116;2023-12-20T13:06:37;10.50;;;4.20;;
5333;SDS011;2689;50.954;7.116;2023-12-20T13:09:04;11.93;;;3.90;;
5333;SDS011;2689;50.954;7.116;2023-12-20T13:11:31;9.47;;;3.87;;
5333;SDS011;2689;50.954;7.116;2023-12-20T13:13:58;10.70;;;4.10;;
5333;SDS011;2689;50.954;7.116;2023-12-20T13:16:26;11.27;;;3.80;;
5333;SDS011;2689;50.954;7.116;2023-12-20T13:18:53;9.13;;;3.80;;
5333;SDS011;2689;50.954;7.116;2023-12-20T13:21:19;10.77;;;3.77;;
5333;SDS011;2689;50.954;7.116;2023-12-20T13:23:47;10.33;;;3.43;;
5333;SDS011;2689;50.954;7.116;2023-12-20T13:26:14;9.10;;;4.20;;
5333;SDS011;2689;50.954;7.116;2023-12-20T13:28:41;9.10;;;3.77;;
5333;SDS011;2689;50.954;7.116;2023-12-20T13:31:07;12.13;;;3.70;;
5333;SDS011;2689;50.954;7.116;2023-12-20T13:33:36;11.70;;;3.40;;
5333;SDS011;2689;50.954;7.116;2023-12-20T13:36:03;11.73;;;4.30;;
5333;SDS011;2689;50.954;7.116;2023-12-20T13:38:31;24.33;;;3.47;;
5333;SDS011;2689;50.954;7.116;2023-12-20T13:40:59;9.37;;;3.63;;
5333;SDS011;2689;50.954;7.116;2023-12-20T13:43:26;10.53;;;4.03;;
5333;SDS011;2689;50.954;7.116;2023-12-20T13:45:53;13.57;;;3.97;;
5333;SDS011;2689;50.954;7.116;2023-12-20T13:48:19;13.13;;;3.90;;
5333;SDS011;2689;50.954;7.116;2023-12-20T13:50:46;11.00;;;3.87;;
5333;SDS011;2689;50.954;7.116;2023-12-20T13:53:13;18.43;;;4.30;;
5333;SDS011;2689;50.954;7.116;2023-12-20T13:55:42;12.20;;;3.60;;
5333;SDS011;2689;50.954;7.116;2023-12-20T13:58:10;7.23;;;3.40;;
5333;SDS011;2689;50.954;7.116;2023-12-20T14:00:37;18.30;;;4.70;;
5333;SDS011;2689;50.954;7.116;2023-12-20T14:03:04;10.10;;;3.07;;
5333;SDS011;2689;50.954;7.116;2023-12-20T14:05:31;15.43;;;3.60;;
5333;SDS011;2689;50.954;7.116;2023-12-20T14:07:58;9.00;;;3.83;;
5333;SDS011;2689;50.954;7.116;2023-12-20T14:10:25;8.20;;;2.57;;
5333;SDS011;2689;50.954;7.116;2023-12-20T14:12:52;6.50;;;2.40;;
5333;SDS011;2689;50.954;7.116;2023-12-20T14:15:20;6.20;;;3.27;;
5333;SDS011;2689;50.954;7.116;2023-12-20T14:17:50;7.70;;;3.00;;
5333;SDS011;2689;50.954;7.116;2023-12-20T14:20:17;14.37;;;4.07;;
5333;SDS011;2689;50.954;7.116;2023-12-20T14:22:44;7.27;;;3.63;;
5333;SDS011;2689;50.954;7.116;2023-12-20T14:25:11;9.57;;;3.37;;
5333;SDS011;2689;50.954;7.116;2023-12-20T14:27:38;11.93;;;4.00;;
5333;SDS011;2689;50.954;7.116;2023-12-20T14:30:05;6.77;;;2.50;;
5333;SDS011;2689;50.954;7.116;2023-12-20T14:32:35;8.40;;;3.33;;
5333;SDS011;2689;50.954;7.116;2023-12-20T14:35:03;8.37;;;2.73;;
5333;SDS011;2689;50.954;7.116;2023-12-20T14:37:33;12.23;;;3.80;;
5333;SDS011;2689;50.954;7.116;2023-12-20T14:40:00;11.23;;;4.17;;
5333;SDS011;2689;50.954;7.116;2023-12-20T14:42:27;10.47;;;3.00;;
5333;SDS011;2689;50.954;7.116;2023-12-20T14:44:54;11.33;;;3.40;;
5333;SDS011;2689;50.954;7.116;2023-12-20T14:47:21;9.73;;;3.73;;
5333;SDS011;2689;50.954;7.116;2023-12-20T14:49:51;11.77;;;3.17;;
5333;SDS011;2689;50.954;7.116;2023-12-20T14:52:18;9.33;;;3.33;;
5333;SDS011;2689;50.954;7.116;2023-12-20T14:54:44;15.13;;;3.73;;
5333;SDS011;2689;50.954;7.116;2023-12-20T14:57:11;9.13;;;2.87;;
5333;SDS011;2689;50.954;7.116;2023-12-20T14:59:38;6.50;;;3.00;;
5333;SDS011;2689;50.954;7.116;2023-12-20T15:02:05;5.40;;;2.67;;
5333;SDS011;2689;50.954;7.116;2023-12-20T15:04:32;10.70;;;3.03;;
5333;SDS011;2689;50.954;7.116;2023-12-20T15:07:00;8.97;;;3.17;;